sensor_id;sensor_type;location;lat;lon;timestamp;temperature;humidity
4411;DHT22;2218;51.408;7.208;2022-12-20T00:00:46;18.30;36.20
4411;DHT22;2218;51.408;7.208;2022-12-20T00:03:14;18.30;36.30
4411;DHT22;2218;51.408;7.208;2022-12-20T00:05:42;18.30;36.40
4411;DHT22;2218;51.408;7.208;2022-12-20T00:08:09;18.30;36.30
4411;DHT22;2218;51.408;7.208;2022-12-20T00:10:39;18.30;36.40
4411;DHT22;2218;51.408;7.208;2022-12-20T00:13:08;18.30;36.40
4411;DHT22;2218;51.408;7.208;2022-12-20T00:15:36;18.30;36.40
4411;DHT22;2218;51.408;7.208;2022-12-20T00:18:03;18.30;36.40
4411;DHT22;2218;51.408;7.208;2022-12-20T00:20:30;18.30;36.50
4411;DHT22;2218;51.408;7.208;2022-12-20T00:22:57;18.30;36.40
4411;DHT22;2218;51.408;7.208;2022-12-20T00:25:24;18.30;36.50
4411;DHT22;2218;51.408;7.208;2022-12-20T00:27:52;18.30;36.50
4411;DHT22;2218;51.408;7.208;2022-12-20T00:30:19;18.30;36.50
4411;DHT22;2218;51.408;7.208;2022-12-20T00:32:46;18.30;36.60
4411;DHT22;2218;51.408;7.208;2022-12-20T00:35:13;18.30;36.60
4411;DHT22;2218;51.408;7.208;2022-12-20T00:37:40;18.30;36.60
4411;DHT22;2218;51.408;7.208;2022-12-20T00:40:08;18.30;36.60
4411;DHT22;2218;51.408;7.208;2022-12-20T00:42:35;18.20;36.50
4411;DHT22;2218;51.408;7.208;2022-12-20T00:45:06;18.30;36.60
4411;DHT22;2218;51.408;7.208;2022-12-20T00:47:33;18.30;37.20
4411;DHT22;2218;51.408;7.208;2022-12-20T00:50:00;18.20;36.50
4411;DHT22;2218;51.408;7.208;2022-12-20T00:52:27;18.30;36.70
4411;DHT22;2218;51.408;7.208;2022-12-20T00:54:54;18.20;36.60
4411;DHT22;2218;51.408;7.208;2022-12-20T00:57:21;18.20;36.60
4411;DHT22;2218;51.408;7.208;2022-12-20T00:59:48;18.20;36.60
4411;DHT22;2218;51.408;7.208;2022-12-20T01:02:16;18.20;36.60
4411;DHT22;2218;51.408;7.208;2022-12-20T01:04:43;18.20;36.60
4411;DHT22;2218;51.408;7.208;2022-12-20T01:07:10;18.20;36.60
4411;DHT22;2218;51.408;7.208;2022-12-20T01:09:37;18.20;36.60
4411;DHT22;2218;51.408;7.208;2022-12-20T01:12:04;18.20;36.70
4411;DHT22;2218;51.408;7.208;2022-12-20T01:14:31;18.20;36.70
4411;DHT22;2218;51.408;7.208;2022-12-20T01:16:58;18.20;36.70
4411;DHT22;2218;51.408;7.208;2022-12-20T01:19:26;18.20;36.70
4411;DHT22;2218;51.408;7.208;2022-12-20T01:21:53;18.20;36.70
4411;DHT22;2218;51.408;7.208;2022-12-20T01:24:20;18.20;36.80
4411;DHT22;2218;51.408;7.208;2022-12-20T01:26:48;18.20;36.80
4411;DHT22;2218;51.408;7.208;2022-12-20T01:29:17;18.20;36.80
4411;DHT22;2218;51.408;7.208;2022-12-20T01:31:44;18.20;36.80
4411;DHT22;2218;51.408;7.208;2022-12-20T01:34:11;18.20;36.80
4411;DHT22;2218;51.408;7.208;2022-12-20T01:36:40;18.20;36.90
4411;DHT22;2218;51.408;7.208;2022-12-20T01:39:10;18.20;36.90
4411;DHT22;2218;51.408;7.208;2022-12-20T01:41:39;18.20;36.80
4411;DHT22;2218;51.408;7.208;2022-12-20T01:47:20;18.20;36.90
4411;DHT22;2218;51.408;7.208;2022-12-20T01:49:50;18.20;36.90
4411;DHT22;2218;51.408;7.208;2022-12-20T01:52:24;18.20;36.90
4411;DHT22;2218;51.408;7.208;2022-12-20T01:55:02;18.20;36.90
4411;DHT22;2218;51.408;7.208;2022-12-20T01:57:36;18.20;37.00
4411;DHT22;2218;51.408;7.208;2022-12-20T02:00:08;18.20;36.90
4411;DHT22;2218;51.408;7.208;2022-12-20T02:02:40;18.20;37.00
4411;DHT22;2218;51.408;7.208;2022-12-20T02:05:09;18.20;37.10
4411;DHT22;2218;51.408;7.208;2022-12-20T02:07:40;18.20;37.00
4411;DHT22;2218;51.408;7.208;2022-12-20T02:10:14;18.20;37.60
4411;DHT22;2218;51.408;7.208;2022-12-20T02:12:44;18.20;37.00
4411;DHT22;2218;51.408;7.208;2022-12-20T02:15:32;18.20;37.00
4411;DHT22;2218;51.408;7.208;2022-12-20T02:18:16;18.20;37.20
4411;DHT22;2218;51.408;7.208;2022-12-20T02:21:08;18.20;37.20
4411;DHT22;2218;51.408;7.208;2022-12-20T02:30:18;18.10;37.20
4411;DHT22;2218;51.408;7.208;2022-12-20T02:32:51;18.10;37.20
4411;DHT22;2218;51.408;7.208;2022-12-20T02:35:27;18.10;37.20
4411;DHT22;2218;51.408;7.208;2022-12-20T02:37:58;18.10;37.30
4411;DHT22;2218;51.408;7.208;2022-12-20T02:40:31;18.10;37.30
4411;DHT22;2218;51.408;7.208;2022-12-20T02:43:06;18.10;37.30
4411;DHT22;2218;51.408;7.208;2022-12-20T02:45:59;18.10;37.30
4411;DHT22;2218;51.408;7.208;2022-12-20T02:48:30;18.10;37.30
4411;DHT22;2218;51.408;7.208;2022-12-20T02:51:01;18.10;37.30
4411;DHT22;2218;51.408;7.208;2022-12-20T02:53:31;18.10;37.40
4411;DHT22;2218;51.408;7.208;2022-12-20T02:56:04;18.10;37.40
4411;DHT22;2218;51.408;7.208;2022-12-20T02:58:44;18.10;37.50
4411;DHT22;2218;51.408;7.208;2022-12-20T03:01:21;18.10;37.40
4411;DHT22;2218;51.408;7.208;2022-12-20T03:03:53;18.10;37.50
4411;DHT22;2218;51.408;7.208;2022-12-20T03:06:22;18.10;37.50
4411;DHT22;2218;51.408;7.208;2022-12-20T03:08:49;18.10;37.50
4411;DHT22;2218;51.408;7.208;2022-12-20T03:11:16;18.10;37.50
4411;DHT22;2218;51.408;7.208;2022-12-20T03:13:44;18.10;37.60
4411;DHT22;2218;51.408;7.208;2022-12-20T03:16:12;18.10;38.10
4411;DHT22;2218;51.408;7.208;2022-12-20T03:18:40;18.10;37.70
4411;DHT22;2218;51.408;7.208;2022-12-20T03:21:07;18.10;37.80
4411;DHT22;2218;51.408;7.208;2022-12-20T03:23:34;18.10;37.70
4411;DHT22;2218;51.408;7.208;2022-12-20T03:26:00;18.10;37.80
4411;DHT22;2218;51.408;7.208;2022-12-20T03:28:33;18.20;37.90
4411;DHT22;2218;51.408;7.208;2022-12-20T03:31:00;18.20;37.90
4411;DHT22;2218;51.408;7.208;2022-12-20T03:33:28;18.20;37.90
4411;DHT22;2218;51.408;7.208;2022-12-20T03:35:59;18.20;37.90
4411;DHT22;2218;51.408;7.208;2022-12-20T03:38:27;18.20;37.90
4411;DHT22;2218;51.408;7.208;2022-12-20T03:40:54;18.20;37.90
4411;DHT22;2218;51.408;7.208;2022-12-20T03:43:21;18.20;38.00
4411;DHT22;2218;51.408;7.208;2022-12-20T03:45:48;18.20;38.00
4411;DHT22;2218;51.408;7.208;2022-12-20T03:48:16;18.20;38.00
4411;DHT22;2218;51.408;7.208;2022-12-20T03:50:43;18.20;38.00
4411;DHT22;2218;51.408;7.208;2022-12-20T03:53:11;18.20;38.10
4411;DHT22;2218;51.408;7.208;2022-12-20T03:55:38;18.20;38.00
4411;DHT22;2218;51.408;7.208;2022-12-20T03:58:05;18.20;38.00
4411;DHT22;2218;51.408;7.208;2022-12-20T04:00:36;18.20;38.10
4411;DHT22;2218;51.408;7.208;2022-12-20T04:03:23;18.20;38.00
4411;DHT22;2218;51.408;7.208;2022-12-20T04:05:50;18.20;38.10
4411;DHT22;2218;51.408;7.208;2022-12-20T04:08:18;18.20;38.20
4411;DHT22;2218;51.408;7.208;2022-12-20T04:10:48;18.20;38.20
4411;DHT22;2218;51.408;7.208;2022-12-20T04:13:35;18.20;38.20
4411;DHT22;2218;51.408;7.208;2022-12-20T04:16:02;18.20;38.20
4411;DHT22;2218;51.408;7.208;2022-12-20T04:18:32;18.20;38.30
4411;DHT22;2218;51.408;7.208;2022-12-20T04:21:00;18.20;38.30
4411;DHT22;2218;51.408;7.208;2022-12-20T04:23:31;18.20;38.30
4411;DHT22;2218;51.408;7.208;2022-12-20T04:25:58;18.20;38.40
4411;DHT22;2218;51.408;7.208;2022-12-20T04:28:28;18.20;38.30
4411;DHT22;2218;51.408;7.208;2022-12-20T04:30:55;18.20;38.30
4411;DHT22;2218;51.408;7.208;2022-12-20T04:33:25;18.20;38.40
4411;DHT22;2218;51.408;7.208;2022-12-20T04:35:53;18.20;38.40
4411;DHT22;2218;51.408;7.208;2022-12-20T04:38:22;18.20;38.40
4411;DHT22;2218;51.408;7.208;2022-12-20T04:40:53;18.30;38.50
4411;DHT22;2218;51.408;7.208;2022-12-20T04:43:23;18.20;38.40
4411;DHT22;2218;51.408;7.208;2022-12-20T04:45:55;18.20;38.50
4411;DHT22;2218;51.408;7.208;2022-12-20T04:48:25;18.20;38.60
4411;DHT22;2218;51.408;7.208;2022-12-20T04:50:54;18.20;38.50
4411;DHT22;2218;51.408;7.208;2022-12-20T04:53:23;18.20;38.60
4411;DHT22;2218;51.408;7.208;2022-12-20T04:56:10;18.20;38.60
4411;DHT22;2218;51.408;7.208;2022-12-20T04:58:38;18.20;38.70
4411;DHT22;2218;51.408;7.208;2022-12-20T05:01:07;18.20;38.70
4411;DHT22;2218;51.408;7.208;2022-12-20T05:03:42;18.30;38.80
4411;DHT22;2218;51.408;7.208;2022-12-20T05:06:10;18.20;38.80
4411;DHT22;2218;51.408;7.208;2022-12-20T05:08:38;18.20;39.40
4411;DHT22;2218;51.408;7.208;2022-12-20T05:11:06;18.30;39.00
4411;DHT22;2218;51.408;7.208;2022-12-20T05:13:36;18.30;39.00
4411;DHT22;2218;51.408;7.208;2022-12-20T05:16:03;18.30;39.00
4411;DHT22;2218;51.408;7.208;2022-12-20T05:18:33;18.30;39.10
4411;DHT22;2218;51.408;7.208;2022-12-20T05:21:04;18.30;39.10
4411;DHT22;2218;51.408;7.208;2022-12-20T05:23:51;18.30;39.10
4411;DHT22;2218;51.408;7.208;2022-12-20T05:26:48;18.30;39.10
4411;DHT22;2218;51.408;7.208;2022-12-20T05:29:18;18.40;39.30
4411;DHT22;2218;51.408;7.208;2022-12-20T05:31:45;18.40;39.40
4411;DHT22;2218;51.408;7.208;2022-12-20T05:34:13;18.40;39.30
4411;DHT22;2218;51.408;7.208;2022-12-20T05:36:45;18.40;39.40
4411;DHT22;2218;51.408;7.208;2022-12-20T05:39:12;18.40;39.40
4411;DHT22;2218;51.408;7.208;2022-12-20T05:41:40;18.40;39.40
4411;DHT22;2218;51.408;7.208;2022-12-20T05:44:08;18.50;39.50
4411;DHT22;2218;51.408;7.208;2022-12-20T05:46:39;18.50;39.50
4411;DHT22;2218;51.408;7.208;2022-12-20T05:49:11;18.50;39.50
4411;DHT22;2218;51.408;7.208;2022-12-20T05:51:38;18.50;39.60
4411;DHT22;2218;51.408;7.208;2022-12-20T05:54:15;18.50;39.60
4411;DHT22;2218;51.408;7.208;2022-12-20T05:56:52;18.50;39.50
4411;DHT22;2218;51.408;7.208;2022-12-20T05:59:25;18.50;39.60
4411;DHT22;2218;51.408;7.208;2022-12-20T06:01:53;18.50;39.60
4411;DHT22;2218;51.408;7.208;2022-12-20T06:04:22;18.50;39.60
4411;DHT22;2218;51.408;7.208;2022-12-20T06:06:51;18.50;39.60
4411;DHT22;2218;51.408;7.208;2022-12-20T06:09:19;18.50;39.70
4411;DHT22;2218;51.408;7.208;2022-12-20T06:12:01;18.50;39.70
4411;DHT22;2218;51.408;7.208;2022-12-20T06:14:28;18.50;39.70
4411;DHT22;2218;51.408;7.208;2022-12-20T06:16:57;18.60;39.90
4411;DHT22;2218;51.408;7.208;2022-12-20T06:19:24;18.50;39.80
4411;DHT22;2218;51.408;7.208;2022-12-20T06:21:53;18.50;39.90
4411;DHT22;2218;51.408;7.208;2022-12-20T06:24:28;18.50;39.90
4411;DHT22;2218;51.408;7.208;2022-12-20T06:26:55;18.50;39.90
4411;DHT22;2218;51.408;7.208;2022-12-20T06:29:24;18.50;39.90
4411;DHT22;2218;51.408;7.208;2022-12-20T06:32:01;18.50;39.90
4411;DHT22;2218;51.408;7.208;2022-12-20T06:34:30;18.50;39.90
4411;DHT22;2218;51.408;7.208;2022-12-20T06:36:56;18.50;39.90
4411;DHT22;2218;51.408;7.208;2022-12-20T06:39:27;18.50;40.00
4411;DHT22;2218;51.408;7.208;2022-12-20T06:42:01;18.60;40.00
4411;DHT22;2218;51.408;7.208;2022-12-20T06:44:28;18.50;40.00
4411;DHT22;2218;51.408;7.208;2022-12-20T06:46:55;18.50;40.00
4411;DHT22;2218;51.408;7.208;2022-12-20T06:49:24;18.50;40.00
4411;DHT22;2218;51.408;7.208;2022-12-20T06:51:51;18.50;40.10
4411;DHT22;2218;51.408;7.208;2022-12-20T06:54:22;18.50;40.00
4411;DHT22;2218;51.408;7.208;2022-12-20T06:56:49;18.50;40.00
4411;DHT22;2218;51.408;7.208;2022-12-20T06:59:16;18.50;40.00
4411;DHT22;2218;51.408;7.208;2022-12-20T07:01:43;18.50;40.10
4411;DHT22;2218;51.408;7.208;2022-12-20T07:04:10;18.50;40.10
4411;DHT22;2218;51.408;7.208;2022-12-20T07:06:38;18.50;40.00
4411;DHT22;2218;51.408;7.208;2022-12-20T07:09:05;18.50;40.00
4411;DHT22;2218;51.408;7.208;2022-12-20T07:11:33;18.50;40.00
4411;DHT22;2218;51.408;7.208;2022-12-20T07:14:00;18.50;40.00
4411;DHT22;2218;51.408;7.208;2022-12-20T07:16:27;18.50;40.00
4411;DHT22;2218;51.408;7.208;2022-12-20T07:18:56;18.50;40.00
4411;DHT22;2218;51.408;7.208;2022-12-20T07:21:23;18.60;40.40
4411;DHT22;2218;51.408;7.208;2022-12-20T07:23:51;18.60;40.80
4411;DHT22;2218;51.408;7.208;2022-12-20T07:26:18;18.70;41.00
4411;DHT22;2218;51.408;7.208;2022-12-20T07:28:45;18.70;40.80
4411;DHT22;2218;51.408;7.208;2022-12-20T07:31:12;18.80;40.80
4411;DHT22;2218;51.408;7.208;2022-12-20T07:33:39;18.90;41.00
4411;DHT22;2218;51.408;7.208;2022-12-20T07:36:08;18.90;41.10
4411;DHT22;2218;51.408;7.208;2022-12-20T07:38:37;18.90;41.00
4411;DHT22;2218;51.408;7.208;2022-12-20T07:41:10;18.90;40.70
4411;DHT22;2218;51.408;7.208;2022-12-20T07:43:39;18.90;40.30
4411;DHT22;2218;51.408;7.208;2022-12-20T07:46:07;18.90;40.00
4411;DHT22;2218;51.408;7.208;2022-12-20T07:48:36;18.90;39.70
4411;DHT22;2218;51.408;7.208;2022-12-20T07:51:06;19.00;39.60
4411;DHT22;2218;51.408;7.208;2022-12-20T07:53:37;19.00;39.20
4411;DHT22;2218;51.408;7.208;2022-12-20T07:56:09;19.00;39.00
4411;DHT22;2218;51.408;7.208;2022-12-20T07:58:40;19.10;38.90
4411;DHT22;2218;51.408;7.208;2022-12-20T08:01:09;19.10;38.70
4411;DHT22;2218;51.408;7.208;2022-12-20T08:03:39;19.10;38.60
4411;DHT22;2218;51.408;7.208;2022-12-20T08:06:09;19.10;38.60
4411;DHT22;2218;51.408;7.208;2022-12-20T08:08:41;19.10;38.60
4411;DHT22;2218;51.408;7.208;2022-12-20T08:11:15;19.10;38.60
4411;DHT22;2218;51.408;7.208;2022-12-20T08:13:44;19.10;38.70
4411;DHT22;2218;51.408;7.208;2022-12-20T08:16:11;19.10;38.70
4411;DHT22;2218;51.408;7.208;2022-12-20T08:18:38;19.10;38.60
4411;DHT22;2218;51.408;7.208;2022-12-20T08:21:05;19.10;38.60
4411;DHT22;2218;51.408;7.208;2022-12-20T08:23:32;19.10;38.60
4411;DHT22;2218;51.408;7.208;2022-12-20T08:25:59;19.10;38.60
4411;DHT22;2218;51.408;7.208;2022-12-20T08:28:28;19.10;38.60
4411;DHT22;2218;51.408;7.208;2022-12-20T08:31:00;19.10;38.70
4411;DHT22;2218;51.408;7.208;2022-12-20T08:33:27;19.10;38.60
4411;DHT22;2218;51.408;7.208;2022-12-20T08:35:58;19.10;38.60
4411;DHT22;2218;51.408;7.208;2022-12-20T08:38:27;19.10;38.50
4411;DHT22;2218;51.408;7.208;2022-12-20T08:41:00;19.10;38.50
4411;DHT22;2218;51.408;7.208;2022-12-20T08:43:28;19.10;38.70
4411;DHT22;2218;51.408;7.208;2022-12-20T08:45:55;19.10;38.90
4411;DHT22;2218;51.408;7.208;2022-12-20T08:48:22;19.20;39.10
4411;DHT22;2218;51.408;7.208;2022-12-20T08:50:53;19.30;39.40
4411;DHT22;2218;51.408;7.208;2022-12-20T08:53:21;19.30;39.50
4411;DHT22;2218;51.408;7.208;2022-12-20T08:55:48;19.30;39.30
4411;DHT22;2218;51.408;7.208;2022-12-20T08:58:15;19.30;39.50
4411;DHT22;2218;51.408;7.208;2022-12-20T09:00:43;19.30;39.10
4411;DHT22;2218;51.408;7.208;2022-12-20T09:03:10;19.30;39.50
4411;DHT22;2218;51.408;7.208;2022-12-20T09:05:43;19.40;39.70
4411;DHT22;2218;51.408;7.208;2022-12-20T09:08:11;19.40;39.80
4411;DHT22;2218;51.408;7.208;2022-12-20T09:10:39;19.40;39.50
4411;DHT22;2218;51.408;7.208;2022-12-20T09:13:06;19.40;39.60
4411;DHT22;2218;51.408;7.208;2022-12-20T09:15:33;19.40;39.50
4411;DHT22;2218;51.408;7.208;2022-12-20T09:18:03;19.40;39.10
4411;DHT22;2218;51.408;7.208;2022-12-20T09:20:30;19.40;39.10
4411;DHT22;2218;51.408;7.208;2022-12-20T09:22:57;19.40;39.10
4411;DHT22;2218;51.408;7.208;2022-12-20T09:25:25;19.40;39.10
4411;DHT22;2218;51.408;7.208;2022-12-20T09:27:52;19.40;39.00
4411;DHT22;2218;51.408;7.208;2022-12-20T09:30:20;19.40;39.10
4411;DHT22;2218;51.408;7.208;2022-12-20T09:32:48;19.40;39.20
4411;DHT22;2218;51.408;7.208;2022-12-20T09:35:17;19.40;39.30
4411;DHT22;2218;51.408;7.208;2022-12-20T09:37:44;19.40;39.30
4411;DHT22;2218;51.408;7.208;2022-12-20T09:40:16;19.50;39.50
4411;DHT22;2218;51.408;7.208;2022-12-20T09:42:46;19.50;39.50
4411;DHT22;2218;51.408;7.208;2022-12-20T09:45:21;19.50;39.50
4411;DHT22;2218;51.408;7.208;2022-12-20T09:47:52;19.50;39.50
4411;DHT22;2218;51.408;7.208;2022-12-20T09:50:38;19.50;39.40
4411;DHT22;2218;51.408;7.208;2022-12-20T09:53:18;19.50;39.40
4411;DHT22;2218;51.408;7.208;2022-12-20T09:55:59;19.50;39.30
4411;DHT22;2218;51.408;7.208;2022-12-20T09:58:42;19.50;39.20
4411;DHT22;2218;51.408;7.208;2022-12-20T10:01:24;19.50;39.20
4411;DHT22;2218;51.408;7.208;2022-12-20T10:03:53;19.50;39.20
4411;DHT22;2218;51.408;7.208;2022-12-20T10:06:32;19.50;39.10
4411;DHT22;2218;51.408;7.208;2022-12-20T10:09:14;19.50;39.60
4411;DHT22;2218;51.408;7.208;2022-12-20T10:12:00;19.50;39.00
4411;DHT22;2218;51.408;7.208;2022-12-20T10:14:57;19.50;39.10
4411;DHT22;2218;51.408;7.208;2022-12-20T10:17:39;19.50;39.10
4411;DHT22;2218;51.408;7.208;2022-12-20T10:20:21;19.50;39.00
4411;DHT22;2218;51.408;7.208;2022-12-20T10:23:10;19.50;39.10
4411;DHT22;2218;51.408;7.208;2022-12-20T10:25:42;19.60;39.10
4411;DHT22;2218;51.408;7.208;2022-12-20T10:28:12;19.50;39.00
4411;DHT22;2218;51.408;7.208;2022-12-20T10:30:42;19.60;39.10
4411;DHT22;2218;51.408;7.208;2022-12-20T10:33:15;19.60;39.10
4411;DHT22;2218;51.408;7.208;2022-12-20T10:35:46;19.60;39.40
4411;DHT22;2218;51.408;7.208;2022-12-20T10:38:17;19.60;39.90
4411;DHT22;2218;51.408;7.208;2022-12-20T10:40:47;19.60;39.50
4411;DHT22;2218;51.408;7.208;2022-12-20T10:43:25;19.60;39.50
4411;DHT22;2218;51.408;7.208;2022-12-20T10:45:58;19.60;39.40
4411;DHT22;2218;51.408;7.208;2022-12-20T10:48:29;19.60;39.40
4411;DHT22;2218;51.408;7.208;2022-12-20T10:51:00;19.60;39.30
4411;DHT22;2218;51.408;7.208;2022-12-20T10:53:31;19.60;39.40
4411;DHT22;2218;51.408;7.208;2022-12-20T10:56:17;19.60;39.30
4411;DHT22;2218;51.408;7.208;2022-12-20T10:58:55;19.60;39.30
4411;DHT22;2218;51.408;7.208;2022-12-20T11:01:27;19.60;39.30
4411;DHT22;2218;51.408;7.208;2022-12-20T11:03:58;19.60;39.30
4411;DHT22;2218;51.408;7.208;2022-12-20T11:06:38;19.60;39.30
4411;DHT22;2218;51.408;7.208;2022-12-20T11:09:27;19.70;39.30
4411;DHT22;2218;51.408;7.208;2022-12-20T11:11:57;19.60;39.30
4411;DHT22;2218;51.408;7.208;2022-12-20T11:14:33;19.60;39.20
4411;DHT22;2218;51.408;7.208;2022-12-20T11:17:04;19.70;39.30
4411;DHT22;2218;51.408;7.208;2022-12-20T11:20:15;19.70;39.20
4411;DHT22;2218;51.408;7.208;2022-12-20T11:22:54;19.70;39.20
4411;DHT22;2218;51.408;7.208;2022-12-20T11:25:44;19.70;39.20
4411;DHT22;2218;51.408;7.208;2022-12-20T11:28:40;19.70;39.10
4411;DHT22;2218;51.408;7.208;2022-12-20T11:31:20;19.70;39.20
4411;DHT22;2218;51.408;7.208;2022-12-20T11:34:03;19.70;39.20
4411;DHT22;2218;51.408;7.208;2022-12-20T11:37:03;19.70;39.20
4411;DHT22;2218;51.408;7.208;2022-12-20T11:39:50;19.70;39.20
4411;DHT22;2218;51.408;7.208;2022-12-20T11:42:41;19.70;39.10
4411;DHT22;2218;51.408;7.208;2022-12-20T11:45:26;19.70;39.10
4411;DHT22;2218;51.408;7.208;2022-12-20T11:51:10;19.70;39.10
4411;DHT22;2218;51.408;7.208;2022-12-20T11:53:51;19.70;39.10
4411;DHT22;2218;51.408;7.208;2022-12-20T11:56:25;19.70;39.10
4411;DHT22;2218;51.408;7.208;2022-12-20T11:59:01;19.70;39.20
4411;DHT22;2218;51.408;7.208;2022-12-20T12:01:34;19.60;39.00
4411;DHT22;2218;51.408;7.208;2022-12-20T12:04:10;19.70;39.10
4411;DHT22;2218;51.408;7.208;2022-12-20T12:06:42;19.70;39.10
4411;DHT22;2218;51.408;7.208;2022-12-20T12:09:17;19.60;39.10
4411;DHT22;2218;51.408;7.208;2022-12-20T12:11:52;19.70;39.20
4411;DHT22;2218;51.408;7.208;2022-12-20T12:14:34;19.60;39.10
4411;DHT22;2218;51.408;7.208;2022-12-20T12:17:15;19.70;39.20
4411;DHT22;2218;51.408;7.208;2022-12-20T12:19:49;19.70;39.30
4411;DHT22;2218;51.408;7.208;2022-12-20T12:22:23;19.70;39.30
4411;DHT22;2218;51.408;7.208;2022-12-20T12:25:01;19.60;39.20
4411;DHT22;2218;51.408;7.208;2022-12-20T12:27:32;19.70;39.40
4411;DHT22;2218;51.408;7.208;2022-12-20T12:30:00;19.70;39.40
4411;DHT22;2218;51.408;7.208;2022-12-20T12:32:31;19.70;39.40
4411;DHT22;2218;51.408;7.208;2022-12-20T12:35:19;19.70;39.40
4411;DHT22;2218;51.408;7.208;2022-12-20T12:38:14;19.70;39.40
4411;DHT22;2218;51.408;7.208;2022-12-20T12:41:28;19.70;39.40
4411;DHT22;2218;51.408;7.208;2022-12-20T12:44:35;19.70;39.40
4411;DHT22;2218;51.408;7.208;2022-12-20T12:47:15;19.70;39.40
4411;DHT22;2218;51.408;7.208;2022-12-20T12:49:49;19.70;39.50
4411;DHT22;2218;51.408;7.208;2022-12-20T12:52:28;19.70;39.50
4411;DHT22;2218;51.408;7.208;2022-12-20T12:58:36;19.70;39.50
4411;DHT22;2218;51.408;7.208;2022-12-20T13:01:07;19.70;39.50
4411;DHT22;2218;51.408;7.208;2022-12-20T13:04:08;19.70;39.50
4411;DHT22;2218;51.408;7.208;2022-12-20T13:09:53;19.70;39.70
4411;DHT22;2218;51.408;7.208;2022-12-20T13:12:54;19.70;39.70
4411;DHT22;2218;51.408;7.208;2022-12-20T13:18:37;19.80;39.70
4411;DHT22;2218;51.408;7.208;2022-12-20T13:21:31;19.80;39.80
4411;DHT22;2218;51.408;7.208;2022-12-20T13:27:29;19.80;39.70
4411;DHT22;2218;51.408;7.208;2022-12-20T13:30:24;19.80;39.80
4411;DHT22;2218;51.408;7.208;2022-12-20T13:33:16;19.80;39.90
4411;DHT22;2218;51.408;7.208;2022-12-20T13:38:58;19.90;40.20
4411;DHT22;2218;51.408;7.208;2022-12-20T13:41:36;19.90;40.40
4411;DHT22;2218;51.408;7.208;2022-12-20T13:44:20;19.80;40.20
4411;DHT22;2218;51.408;7.208;2022-12-20T13:47:01;19.80;40.20
4411;DHT22;2218;51.408;7.208;2022-12-20T13:49:36;19.80;40.30
4411;DHT22;2218;51.408;7.208;2022-12-20T13:52:23;19.70;40.30
4411;DHT22;2218;51.408;7.208;2022-12-20T13:54:56;19.70;40.40
4411;DHT22;2218;51.408;7.208;2022-12-20T13:57:31;19.60;40.50
4411;DHT22;2218;51.408;7.208;2022-12-20T14:00:11;19.60;40.60
4411;DHT22;2218;51.408;7.208;2022-12-20T14:02:42;19.60;40.70
4411;DHT22;2218;51.408;7.208;2022-12-20T14:05:15;19.60;40.80
4411;DHT22;2218;51.408;7.208;2022-12-20T14:07:54;19.60;40.80
4411;DHT22;2218;51.408;7.208;2022-12-20T14:10:27;19.60;41.40
4411;DHT22;2218;51.408;7.208;2022-12-20T14:12:56;19.60;40.80
4411;DHT22;2218;51.408;7.208;2022-12-20T14:15:28;19.50;40.80
4411;DHT22;2218;51.408;7.208;2022-12-20T14:17:56;19.50;40.70
4411;DHT22;2218;51.408;7.208;2022-12-20T14:20:32;19.50;40.80
4411;DHT22;2218;51.408;7.208;2022-12-20T14:23:05;19.50;40.80
4411;DHT22;2218;51.408;7.208;2022-12-20T14:25:41;19.50;40.80
4411;DHT22;2218;51.408;7.208;2022-12-20T14:28:19;19.40;40.80
4411;DHT22;2218;51.408;7.208;2022-12-20T14:30:53;19.40;40.80
4411;DHT22;2218;51.408;7.208;2022-12-20T14:33:25;19.40;40.90
4411;DHT22;2218;51.408;7.208;2022-12-20T14:35:56;19.40;40.90
4411;DHT22;2218;51.408;7.208;2022-12-20T14:38:28;19.40;40.90
4411;DHT22;2218;51.408;7.208;2022-12-20T14:40:56;19.40;40.90
4411;DHT22;2218;51.408;7.208;2022-12-20T14:43:26;19.30;40.80
4411;DHT22;2218;51.408;7.208;2022-12-20T14:46:14;19.30;40.90
4411;DHT22;2218;51.408;7.208;2022-12-20T14:48:44;19.30;41.00
4411;DHT22;2218;51.408;7.208;2022-12-20T14:51:12;19.30;41.00
4411;DHT22;2218;51.408;7.208;2022-12-20T14:53:47;19.30;41.00
4411;DHT22;2218;51.408;7.208;2022-12-20T14:56:18;19.30;41.00
4411;DHT22;2218;51.408;7.208;2022-12-20T14:59:02;19.30;41.00
4411;DHT22;2218;51.408;7.208;2022-12-20T15:01:32;19.30;41.00
4411;DHT22;2218;51.408;7.208;2022-12-20T15:03:59;19.30;41.00
4411;DHT22;2218;51.408;7.208;2022-12-20T15:06:34;19.30;41.00
4411;DHT22;2218;51.408;7.208;2022-12-20T15:09:08;19.30;41.00
4411;DHT22;2218;51.408;7.208;2022-12-20T15:11:36;19.30;41.00
4411;DHT22;2218;51.408;7.208;2022-12-20T15:14:17;19.30;41.00
4411;DHT22;2218;51.408;7.208;2022-12-20T15:16:49;19.30;41.00
4411;DHT22;2218;51.408;7.208;2022-12-20T15:19:16;19.30;41.00
4411;DHT22;2218;51.408;7.208;2022-12-20T15:21:44;19.30;41.10
4411;DHT22;2218;51.408;7.208;2022-12-20T15:24:15;19.30;41.20
4411;DHT22;2218;51.408;7.208;2022-12-20T15:26:44;19.30;41.20
4411;DHT22;2218;51.408;7.208;2022-12-20T15:29:14;19.30;41.20
4411;DHT22;2218;51.408;7.208;2022-12-20T15:31:43;19.30;41.10
4411;DHT22;2218;51.408;7.208;2022-12-20T15:34:13;19.30;41.10
4411;DHT22;2218;51.408;7.208;2022-12-20T15:36:44;19.30;41.20
4411;DHT22;2218;51.408;7.208;2022-12-20T15:39:13;19.20;41.20
4411;DHT22;2218;51.408;7.208;2022-12-20T15:41:42;19.20;41.30
4411;DHT22;2218;51.408;7.208;2022-12-20T15:44:13;19.20;41.30
4411;DHT22;2218;51.408;7.208;2022-12-20T15:46:41;19.20;41.20
4411;DHT22;2218;51.408;7.208;2022-12-20T15:49:13;19.20;41.20
4411;DHT22;2218;51.408;7.208;2022-12-20T15:51:41;19.20;41.20
4411;DHT22;2218;51.408;7.208;2022-12-20T15:54:19;19.20;41.20
4411;DHT22;2218;51.408;7.208;2022-12-20T15:56:49;19.20;41.20
4411;DHT22;2218;51.408;7.208;2022-12-20T15:59:16;19.20;41.20
4411;DHT22;2218;51.408;7.208;2022-12-20T16:01:43;19.20;41.20
4411;DHT22;2218;51.408;7.208;2022-12-20T16:04:14;19.20;41.20
4411;DHT22;2218;51.408;7.208;2022-12-20T16:06:43;19.20;41.30
4411;DHT22;2218;51.408;7.208;2022-12-20T16:09:13;19.10;41.10
4411;DHT22;2218;51.408;7.208;2022-12-20T16:11:41;19.20;41.30
4411;DHT22;2218;51.408;7.208;2022-12-20T16:14:13;19.10;41.30
4411;DHT22;2218;51.408;7.208;2022-12-20T16:16:42;19.10;41.20
4411;DHT22;2218;51.408;7.208;2022-12-20T16:19:10;19.10;41.20
4411;DHT22;2218;51.408;7.208;2022-12-20T16:21:41;19.10;41.40
4411;DHT22;2218;51.408;7.208;2022-12-20T16:24:14;19.10;41.40
4411;DHT22;2218;51.408;7.208;2022-12-20T16:26:43;19.10;41.30
4411;DHT22;2218;51.408;7.208;2022-12-20T16:29:10;19.10;41.30
4411;DHT22;2218;51.408;7.208;2022-12-20T16:31:39;19.10;41.40
4411;DHT22;2218;51.408;7.208;2022-12-20T16:34:11;19.10;41.40
4411;DHT22;2218;51.408;7.208;2022-12-20T16:36:40;19.10;41.50
4411;DHT22;2218;51.408;7.208;2022-12-20T16:39:07;19.10;41.50
4411;DHT22;2218;51.408;7.208;2022-12-20T16:41:38;19.10;41.60
4411;DHT22;2218;51.408;7.208;2022-12-20T16:44:11;19.10;41.50
4411;DHT22;2218;51.408;7.208;2022-12-20T16:46:40;19.10;41.60
4411;DHT22;2218;51.408;7.208;2022-12-20T16:49:09;19.10;41.70
4411;DHT22;2218;51.408;7.208;2022-12-20T16:51:38;19.10;41.80
4411;DHT22;2218;51.408;7.208;2022-12-20T16:54:13;19.10;41.80
4411;DHT22;2218;51.408;7.208;2022-12-20T16:56:43;19.10;41.90
4411;DHT22;2218;51.408;7.208;2022-12-20T16:59:10;19.10;41.90
4411;DHT22;2218;51.408;7.208;2022-12-20T17:01:38;19.10;42.00
4411;DHT22;2218;51.408;7.208;2022-12-20T17:04:13;19.10;42.00